createdAt,value
2018-12-18T00:01:01.201Z,95759.67
2018-12-18T00:03:29.754Z,95754.64
2018-12-18T00:05:58.321Z,95754.64
2018-12-18T00:08:26.830Z,95746.94
2018-12-18T00:11:00.771Z,95751.48
2018-12-18T00:13:29.360Z,95756.03
2018-12-18T00:15:58.003Z,95759.19
2018-12-18T00:18:26.570Z,95765.48
2018-12-18T00:20:55.140Z,95760.74
2018-12-18T00:23:23.740Z,95759.48
2018-12-18T00:25:52.525Z,95761.52
2018-12-18T00:28:21.090Z,95759.91
2018-12-18T00:30:49.691Z,95763.33
2018-12-18T00:33:18.219Z,95760.42
2018-12-18T00:35:46.811Z,95774.42
2018-12-18T00:38:15.409Z,95772.88
2018-12-18T00:40:43.968Z,95772.39
2018-12-18T00:43:12.549Z,95777.75
2018-12-18T00:45:41.685Z,95776.63
2018-12-18T00:48:10.214Z,95784.39
2018-12-18T00:50:38.786Z,95783.59
2018-12-18T00:53:07.353Z,95796.05
2018-12-18T00:55:35.937Z,95797.80
2018-12-18T00:58:04.555Z,95804.12
2018-12-18T01:00:33.155Z,95802.57
2018-12-18T01:03:01.711Z,95803.41
2018-12-18T01:05:30.318Z,95809.95
2018-12-18T01:07:59.308Z,95808.28
2018-12-18T01:10:28.151Z,95802.28
2018-12-18T01:12:56.745Z,95805.86
2018-12-18T01:15:25.466Z,95802.95
2018-12-18T01:17:54.031Z,95802.60
2018-12-18T01:20:22.635Z,95806.98
2018-12-18T01:22:51.245Z,95806.47
2018-12-18T01:25:19.775Z,95814.12
2018-12-18T01:27:48.380Z,95809.86
2018-12-18T01:30:17.254Z,95815.63
2018-12-18T01:32:45.790Z,95813.72
2018-12-18T01:35:14.448Z,95811.92
2018-12-18T01:37:42.999Z,95802.92
2018-12-18T01:40:11.608Z,95806.88
2018-12-18T01:42:40.175Z,95803.91
2018-12-18T01:45:08.754Z,95816.08
2018-12-18T01:47:37.289Z,95806.85
2018-12-18T01:50:06.139Z,95803.88
2018-12-18T01:52:34.669Z,95814.83
2018-12-18T01:55:05.929Z,95807.11
2018-12-18T01:57:34.505Z,95812.44
2018-12-18T02:00:10.380Z,95805.02
2018-12-18T02:02:38.952Z,95810.02
2018-12-18T02:05:07.637Z,95810.82
2018-12-18T02:07:36.206Z,95801.30
2018-12-18T02:10:05.586Z,95805.05
2018-12-18T02:12:34.132Z,95811.11
2018-12-18T02:15:02.684Z,95807.66
2018-12-18T02:17:31.275Z,95807.70
2018-12-18T02:19:59.844Z,95803.17
2018-12-18T02:22:28.391Z,95799.98
2018-12-18T02:24:56.945Z,95802.44
2018-12-18T02:27:25.534Z,95805.95
2018-12-18T02:29:54.120Z,95804.63
2018-12-18T02:32:22.674Z,95804.34
2018-12-18T02:34:51.479Z,95813.89
2018-12-18T02:37:20.084Z,95550.28
2018-12-18T02:39:48.635Z,95811.98
2018-12-18T02:42:17.287Z,95812.21
2018-12-18T02:44:45.856Z,95805.34
2018-12-18T02:47:14.385Z,95803.50
2018-12-18T02:49:42.921Z,95804.31
2018-12-18T02:52:11.497Z,95802.53
2018-12-18T02:54:40.070Z,95803.80
2018-12-18T02:57:08.726Z,95803.59
2018-12-18T02:59:37.317Z,95799.59
2018-12-18T03:02:05.895Z,95795.66
2018-12-18T03:04:34.473Z,95793.76
2018-12-18T03:07:03.035Z,95795.89
2018-12-18T03:09:31.623Z,95804.16
2018-12-18T03:12:00.352Z,95808.34
2018-12-18T03:14:28.942Z,95809.22
2018-12-18T03:16:57.748Z,95809.25
2018-12-18T03:19:26.324Z,95815.58
2018-12-18T03:21:54.917Z,95823.23
2018-12-18T03:24:23.552Z,95824.55
2018-12-18T03:26:52.143Z,95823.74
2018-12-18T03:29:21.305Z,95828.52
2018-12-18T03:31:54.093Z,95831.13
2018-12-18T03:34:28.227Z,95837.52
2018-12-18T03:36:53.278Z,95835.94
2018-12-18T03:39:21.874Z,95839.44
2018-12-18T03:41:50.446Z,95843.14
2018-12-18T03:44:19.028Z,95839.17
2018-12-18T03:46:47.647Z,95832.97
2018-12-18T03:49:16.196Z,95836.94
2018-12-18T03:51:44.788Z,95834.48
2018-12-18T03:54:13.400Z,95838.38
2018-12-18T03:56:41.976Z,95840.19
2018-12-18T03:59:10.547Z,95842.31
2018-12-18T04:01:39.095Z,95843.16
2018-12-18T04:04:07.619Z,95847.38
2018-12-18T04:06:36.190Z,95848.19
2018-12-18T04:09:07.031Z,95853.26
2018-12-18T04:11:39.755Z,95856.86
2018-12-18T04:14:08.302Z,95861.53
2018-12-18T04:16:36.901Z,95869.69
2018-12-18T04:19:05.496Z,95868.18
2018-12-18T04:21:34.058Z,95874.83
2018-12-18T04:24:02.633Z,95879.83
2018-12-18T04:26:31.202Z,95886.01
2018-12-18T04:28:59.760Z,95888.35
2018-12-18T04:31:28.350Z,95890.23
2018-12-18T04:33:56.926Z,95899.41
2018-12-18T04:36:25.516Z,95044.84
2018-12-18T04:38:54.095Z,95893.75
2018-12-18T04:41:22.776Z,95904.08
2018-12-18T04:43:51.357Z,95898.27
2018-12-18T04:46:20.042Z,95894.59
2018-12-18T04:48:48.622Z,95910.22
2018-12-18T04:51:17.362Z,95905.73
2018-12-18T04:53:46.040Z,95914.19
2018-12-18T04:56:14.624Z,95909.44
2018-12-18T04:58:43.252Z,95917.89
2018-12-18T05:01:11.838Z,95919.48
2018-12-18T05:03:40.366Z,95930.83
2018-12-18T05:06:08.930Z,95929.55
2018-12-18T05:08:38.485Z,95933.25
2018-12-18T05:11:07.110Z,95934.57
2018-12-18T05:13:35.731Z,95935.35
2018-12-18T05:16:04.336Z,95942.91
2018-12-18T05:18:33.011Z,95941.66
2018-12-18T05:21:01.728Z,95737.71
2018-12-18T05:23:30.277Z,95940.60
2018-12-18T05:25:58.817Z,95942.22
2018-12-18T05:28:27.478Z,95940.89
2018-12-18T05:30:56.166Z,95948.62
2018-12-18T05:33:24.786Z,95943.38
2018-12-18T05:35:53.378Z,95944.73
2018-12-18T05:38:21.941Z,95945.55
2018-12-18T05:40:50.528Z,95951.39
2018-12-18T05:43:19.112Z,95960.09
2018-12-18T05:45:47.694Z,95956.38
2018-12-18T05:48:16.310Z,95952.16
2018-12-18T05:50:44.983Z,95948.41
2018-12-18T05:53:13.577Z,95954.72
2018-12-18T05:55:42.119Z,95961.55
2018-12-18T05:58:10.689Z,95962.35
2018-12-18T06:00:39.360Z,95970.55
2018-12-18T06:03:07.902Z,95968.92
2018-12-18T06:05:36.475Z,95972.33
2018-12-18T06:08:05.006Z,95967.04
2018-12-18T06:10:33.716Z,95966.83
2018-12-18T06:13:02.426Z,95973.56
2018-12-18T06:15:30.987Z,95971.44
2018-12-18T06:17:59.554Z,95970.92
2018-12-18T06:20:28.201Z,95971.48
2018-12-18T06:22:57.117Z,95980.91
2018-12-18T06:25:25.751Z,95984.87
2018-12-18T06:27:54.381Z,95985.93
2018-12-18T06:30:22.943Z,95983.38
2018-12-18T06:32:51.516Z,95982.57
2018-12-18T06:35:20.084Z,95986.45
2018-12-18T06:37:48.653Z,95988.84
2018-12-18T06:40:17.209Z,95989.23
2018-12-18T06:42:45.845Z,95983.08
2018-12-18T06:45:14.351Z,95991.83
2018-12-18T06:47:42.970Z,95988.66
2018-12-18T06:50:11.721Z,95995.28
2018-12-18T06:52:40.462Z,95987.91
2018-12-18T06:55:09.081Z,95996.86
2018-12-18T06:57:37.744Z,95995.03
2018-12-18T07:00:14.039Z,95997.36
2018-12-18T07:02:42.682Z,95995.75
2018-12-18T07:05:16.664Z,96005.91
2018-12-18T07:07:44.325Z,96001.27
2018-12-18T07:10:13.029Z,96007.80
2018-12-18T07:12:41.605Z,96007.23
2018-12-18T07:15:10.316Z,96008.73
2018-12-18T07:17:38.983Z,96013.02
2018-12-18T07:20:07.558Z,96017.45
2018-12-18T07:22:36.133Z,96016.25
2018-12-18T07:25:04.929Z,95241.72
2018-12-18T07:27:33.517Z,96021.16
2018-12-18T07:30:02.142Z,96031.14
2018-12-18T07:32:30.817Z,96030.21
2018-12-18T07:34:59.381Z,96031.58
2018-12-18T07:37:27.963Z,96029.41
2018-12-18T07:39:56.534Z,96033.20
2018-12-18T07:42:25.132Z,96033.20
2018-12-18T07:44:53.713Z,96040.45
2018-12-18T07:47:22.279Z,96035.47
2018-12-18T07:49:50.843Z,96039.31
2018-12-18T07:52:19.469Z,96037.56
2018-12-18T07:54:51.033Z,96033.62
2018-12-18T07:57:19.577Z,96039.03
2018-12-18T07:59:48.183Z,96040.20
2018-12-18T08:02:16.792Z,96043.12
2018-12-18T08:04:45.401Z,96041.61
2018-12-18T08:07:14.040Z,96040.73
2018-12-18T08:09:42.586Z,96046.88
2018-12-18T08:12:11.134Z,96047.28
2018-12-18T08:14:39.692Z,96053.56
2018-12-18T08:17:08.255Z,96051.58
2018-12-18T08:19:36.826Z,96054.75
2018-12-18T08:22:05.999Z,96047.28
2018-12-18T08:24:34.596Z,96059.64
2018-12-18T08:27:03.159Z,96054.05
2018-12-18T08:29:31.757Z,96050.99
2018-12-18T08:32:00.349Z,96062.28
2018-12-18T08:34:28.921Z,96056.36
2018-12-18T08:36:57.580Z,96062.03
2018-12-18T08:39:26.112Z,96067.58
2018-12-18T08:41:54.645Z,96066.45
2018-12-18T08:44:23.213Z,96063.23
2018-12-18T08:46:51.825Z,96062.99
2018-12-18T08:49:20.468Z,96069.03
2018-12-18T08:51:49.019Z,96073.98
2018-12-18T08:54:17.639Z,96074.14
2018-12-18T08:56:46.204Z,96067.55
2018-12-18T08:59:14.768Z,96079.19
2018-12-18T09:01:43.404Z,96078.18
2018-12-18T09:04:11.902Z,96077.59
2018-12-18T09:06:40.442Z,96075.87
2018-12-18T09:09:09.101Z,96078.23
2018-12-18T09:11:37.659Z,96076.90
2018-12-18T09:14:06.356Z,96076.41
2018-12-18T09:16:40.128Z,96071.11
2018-12-18T09:19:08.675Z,96069.02
2018-12-18T09:21:37.468Z,96076.95
2018-12-18T09:24:06.045Z,96070.20
2018-12-18T09:26:34.633Z,96066.05
2018-12-18T09:29:03.248Z,96064.42
2018-12-18T09:31:31.871Z,96065.63
2018-12-18T09:34:00.566Z,96066.50
2018-12-18T09:36:29.143Z,96076.88
2018-12-18T09:39:03.011Z,95568.43
2018-12-18T09:41:36.861Z,96058.23
2018-12-18T09:44:11.060Z,96047.98
2018-12-18T09:46:39.562Z,96050.80
2018-12-18T09:49:08.192Z,96054.19
2018-12-18T09:51:36.741Z,96059.44
2018-12-18T09:54:05.701Z,96068.91
2018-12-18T09:56:38.369Z,96061.88
2018-12-18T09:59:06.964Z,96054.40
2018-12-18T10:01:35.527Z,96056.31
2018-12-18T10:04:04.130Z,96051.76
2018-12-18T10:06:32.674Z,96050.77
2018-12-18T10:09:01.231Z,96049.54
2018-12-18T10:11:29.816Z,96057.66
2018-12-18T10:13:58.401Z,96044.13
2018-12-18T10:16:26.972Z,96033.17
2018-12-18T10:18:55.477Z,96045.19
2018-12-18T10:21:24.053Z,96044.81
2018-12-18T10:23:52.620Z,96040.63
2018-12-18T10:26:21.236Z,96038.50
2018-12-18T10:28:49.828Z,96048.66
2018-12-18T10:31:18.418Z,96045.16
2018-12-18T10:33:47.036Z,96031.95
2018-12-18T10:36:15.873Z,96035.55
2018-12-18T10:38:44.410Z,96037.17
2018-12-18T10:41:12.979Z,96030.41
2018-12-18T10:43:41.522Z,96024.86
2018-12-18T10:46:10.058Z,96024.42
2018-12-18T10:48:38.707Z,96018.06
2018-12-18T10:51:07.275Z,96024.95
2018-12-18T10:53:35.830Z,96025.88
2018-12-18T10:56:04.568Z,96020.63
2018-12-18T10:58:33.203Z,96025.38
2018-12-18T11:01:07.044Z,96025.30
2018-12-18T11:03:35.619Z,96023.50
2018-12-18T11:06:09.845Z,96012.09
2018-12-18T11:08:34.854Z,96019.52
2018-12-18T11:11:04.116Z,96009.01
2018-12-18T11:13:32.661Z,96010.30
2018-12-18T11:16:01.234Z,95998.41
2018-12-18T11:18:29.830Z,96000.47
2018-12-18T11:20:58.584Z,95999.95
2018-12-18T11:23:27.189Z,96001.24
2018-12-18T11:25:55.787Z,96003.83
2018-12-18T11:28:24.358Z,95998.45
2018-12-18T11:30:52.900Z,95995.80
2018-12-18T11:33:21.451Z,95992.89
2018-12-18T11:35:50.248Z,95999.22
2018-12-18T11:38:18.820Z,95997.23
2018-12-18T11:40:47.401Z,95986.19
2018-12-18T11:43:15.994Z,95994.05
2018-12-18T11:45:44.649Z,95996.69
2018-12-18T11:48:13.229Z,95984.67
2018-12-18T11:50:41.789Z,95998.55
2018-12-18T11:53:10.418Z,95998.48
2018-12-18T11:55:38.961Z,95995.73
2018-12-18T11:58:07.531Z,95995.84
2018-12-18T12:00:36.630Z,96005.88
2018-12-18T12:03:05.242Z,96002.50
2018-12-18T12:05:33.794Z,95990.40
2018-12-18T12:08:02.443Z,96002.46
2018-12-18T12:10:31.000Z,95996.80
2018-12-18T12:12:59.693Z,96002.98
2018-12-18T12:15:28.257Z,96000.41
2018-12-18T12:17:57.002Z,96001.47
2018-12-18T12:20:25.601Z,96003.56
2018-12-18T12:22:54.127Z,95992.64
2018-12-18T12:25:22.907Z,95995.88
2018-12-18T12:28:06.386Z,95985.25
2018-12-18T12:30:35.752Z,95992.20
2018-12-18T12:33:04.429Z,95995.40
2018-12-18T12:35:33.105Z,95995.77
2018-12-18T12:38:01.854Z,95998.89
2018-12-18T12:40:30.465Z,96000.52
2018-12-18T12:42:59.039Z,96006.58
2018-12-18T12:45:27.589Z,96015.15
2018-12-18T12:47:59.652Z,96006.28
2018-12-18T12:50:28.428Z,96014.86
2018-12-18T12:52:57.059Z,96010.45
2018-12-18T12:55:25.628Z,96012.36
2018-12-18T12:57:54.251Z,96015.96
2018-12-18T13:00:22.865Z,96010.41
2018-12-18T13:02:51.453Z,96009.01
2018-12-18T13:05:20.001Z,96015.41
2018-12-18T13:07:48.570Z,96010.66
2018-12-18T13:10:17.157Z,96011.77
2018-12-18T13:12:45.684Z,96011.36
2018-12-18T13:15:14.225Z,96012.56
2018-12-18T13:17:43.661Z,96012.86
2018-12-18T13:20:12.279Z,96012.23
2018-12-18T13:22:40.873Z,96011.72
2018-12-18T13:25:09.416Z,96007.41
2018-12-18T13:27:37.956Z,96014.28
2018-12-18T13:30:13.877Z,96016.89
2018-12-18T13:32:42.459Z,96020.05
2018-12-18T13:35:11.082Z,96024.23
2018-12-18T13:37:39.694Z,96017.63
2018-12-18T13:40:08.614Z,96020.30
2018-12-18T13:42:37.173Z,96018.09
2018-12-18T13:45:06.125Z,96015.27
2018-12-18T13:47:34.773Z,96016.81
2018-12-18T13:50:03.473Z,96017.11
2018-12-18T13:52:32.068Z,96024.80
2018-12-18T13:55:00.671Z,96028.50
2018-12-18T13:57:29.228Z,96030.60
2018-12-18T13:59:57.762Z,96031.54
2018-12-18T14:02:26.296Z,96033.11
2018-12-18T14:04:54.875Z,96035.42
2018-12-18T14:07:23.356Z,96036.95
2018-12-18T14:09:51.936Z,96032.47
2018-12-18T14:12:20.532Z,96035.72
2018-12-18T14:14:49.065Z,96039.35
2018-12-18T14:17:17.631Z,96035.86
2018-12-18T14:19:46.193Z,96033.03
2018-12-18T14:22:14.875Z,96037.34
2018-12-18T14:24:43.537Z,96033.50
2018-12-18T14:27:12.219Z,96035.59
2018-12-18T14:29:40.744Z,96039.60
2018-12-18T14:32:09.394Z,96043.35
2018-12-18T14:34:38.028Z,96040.58
2018-12-18T14:37:06.536Z,96048.20
2018-12-18T14:39:35.095Z,96045.39
2018-12-18T14:42:03.854Z,96041.63
2018-12-18T14:44:32.409Z,96043.47
2018-12-18T14:47:01.011Z,96046.52
2018-12-18T14:49:29.596Z,96045.86
2018-12-18T14:51:58.153Z,96042.95
2018-12-18T14:54:27.007Z,96050.33
2018-12-18T14:56:55.527Z,96050.89
2018-12-18T14:59:24.123Z,96047.95
2018-12-18T15:01:52.679Z,96047.95
2018-12-18T15:04:21.333Z,96048.80
2018-12-18T15:06:49.863Z,96049.36
2018-12-18T15:09:18.803Z,96046.63
2018-12-18T15:11:47.477Z,96051.27
2018-12-18T15:14:16.069Z,96047.30
2018-12-18T15:16:44.981Z,96048.16
2018-12-18T15:19:13.717Z,96049.99
2018-12-18T15:21:42.370Z,96045.26
2018-12-18T15:24:10.953Z,96054.56
2018-12-18T15:26:39.532Z,96055.80
2018-12-18T15:29:08.077Z,96052.03
2018-12-18T15:31:36.640Z,96050.28
2018-12-18T15:34:05.358Z,96043.11
2018-12-18T15:36:33.974Z,96048.06
2018-12-18T15:41:37.633Z,96057.07
2018-12-18T15:44:06.210Z,96059.97
2018-12-18T15:46:34.855Z,96052.39
2018-12-18T15:49:03.556Z,96053.81
2018-12-18T15:51:32.101Z,96060.48
2018-12-18T15:54:00.712Z,96051.69
2018-12-18T15:56:29.392Z,96062.77
2018-12-18T15:58:57.983Z,96059.02
2018-12-18T16:01:26.626Z,96063.52
2018-12-18T16:03:55.177Z,96058.36
2018-12-18T16:06:23.732Z,96071.48
2018-12-18T16:08:52.309Z,96073.41
2018-12-18T16:11:20.919Z,96070.25
2018-12-18T16:13:49.435Z,96075.37
2018-12-18T16:16:18.017Z,96075.13
2018-12-18T16:18:46.574Z,96075.89
2018-12-18T16:21:15.128Z,96080.42
2018-12-18T16:23:43.657Z,96076.41
2018-12-18T16:26:12.222Z,96087.73
2018-12-18T16:28:40.802Z,96073.91
2018-12-18T16:31:09.401Z,96080.83
2018-12-18T16:33:37.958Z,96083.37
2018-12-18T16:36:06.616Z,96083.37
2018-12-18T16:38:35.153Z,96096.27
2018-12-18T16:41:03.746Z,96095.46
2018-12-18T16:43:32.320Z,96100.75
2018-12-18T16:46:00.881Z,96104.45
2018-12-18T16:48:29.483Z,96091.18
2018-12-18T16:50:58.051Z,96101.45
2018-12-18T16:53:27.160Z,96106.03
2018-12-18T16:55:55.703Z,96104.72
2018-12-18T16:58:24.265Z,96118.23
2018-12-18T17:00:52.848Z,96115.29
2018-12-18T17:03:21.393Z,96115.59
2018-12-18T17:05:49.929Z,96120.52
2018-12-18T17:08:18.479Z,96124.16
2018-12-18T17:10:47.085Z,96117.83
2018-12-18T17:13:15.730Z,96118.12
2018-12-18T17:15:44.328Z,96122.09
2018-12-18T17:18:12.868Z,96118.69
2018-12-18T17:20:41.445Z,96130.48
2018-12-18T17:23:09.997Z,96130.17
2018-12-18T17:25:38.533Z,96130.77
2018-12-18T17:28:07.105Z,96132.81
2018-12-18T17:30:35.746Z,96129.39
2018-12-18T17:33:04.356Z,95915.95
2018-12-18T17:35:32.907Z,96133.58
2018-12-18T17:38:01.486Z,96132.25
2018-12-18T17:40:30.669Z,96131.80
2018-12-18T17:42:59.282Z,96130.09
2018-12-18T17:45:27.828Z,96149.67
2018-12-18T17:47:56.473Z,96150.38
2018-12-18T17:50:25.114Z,96144.34
2018-12-18T17:52:53.710Z,96142.50
2018-12-18T17:55:22.299Z,96147.55
2018-12-18T17:57:51.026Z,96149.44
2018-12-18T18:00:19.681Z,96146.03
2018-12-18T18:02:48.277Z,96150.19
2018-12-18T18:05:16.883Z,96149.92
2018-12-18T18:07:45.454Z,96157.72
2018-12-18T18:10:13.978Z,96159.25
2018-12-18T18:12:42.571Z,96163.97
2018-12-18T18:15:11.793Z,96155.28
2018-12-18T18:17:40.328Z,96155.75
2018-12-18T18:20:09.192Z,96156.52
2018-12-18T18:22:38.338Z,96153.47
2018-12-18T18:25:07.144Z,96157.09
2018-12-18T18:27:35.657Z,96163.59
2018-12-18T18:30:12.778Z,96166.23
2018-12-18T18:32:41.380Z,96156.52
2018-12-18T18:35:09.932Z,96156.80
2018-12-18T18:37:39.721Z,96167.29
2018-12-18T18:40:09.175Z,96164.95
2018-12-18T18:42:37.747Z,96167.18
2018-12-18T18:45:06.872Z,96168.42
2018-12-18T18:47:35.412Z,96169.09
2018-12-18T18:50:04.324Z,96161.23
2018-12-18T18:52:32.939Z,96168.13
2018-12-18T18:55:01.517Z,96164.61
2018-12-18T18:57:30.069Z,96174.80
2018-12-18T18:59:58.862Z,96179.09
2018-12-18T19:02:27.719Z,96168.01
2018-12-18T19:04:56.519Z,96171.33
2018-12-18T19:07:26.499Z,96168.58
2018-12-18T19:09:55.173Z,96168.46
2018-12-18T19:12:23.910Z,96180.02
2018-12-18T19:14:52.633Z,96179.78
2018-12-18T19:17:21.321Z,96179.20
2018-12-18T19:19:50.036Z,96187.07
2018-12-18T19:22:19.554Z,96181.22
2018-12-18T19:24:48.966Z,96185.00
2018-12-18T19:27:18.698Z,96178.23
2018-12-18T19:29:47.971Z,96185.64
2018-12-18T19:32:16.609Z,95984.08
2018-12-18T19:34:45.169Z,96191.67
2018-12-18T19:37:13.833Z,96186.06
2018-12-18T19:39:42.619Z,96194.68
2018-12-18T19:42:11.328Z,96193.62
2018-12-18T19:44:39.928Z,96197.59
2018-12-18T19:47:08.478Z,96213.12
2018-12-18T19:49:37.040Z,96207.47
2018-12-18T19:52:05.593Z,96203.81
2018-12-18T19:54:34.151Z,96201.62
2018-12-18T19:57:02.730Z,96203.95
2018-12-18T19:59:31.357Z,96208.46
2018-12-18T20:01:59.972Z,96210.11
2018-12-18T20:04:29.447Z,96201.44
2018-12-18T20:06:58.005Z,96200.86
2018-12-18T20:09:26.552Z,96208.67
2018-12-18T20:11:55.147Z,96199.34
2018-12-18T20:14:23.659Z,96209.48
2018-12-18T20:16:52.268Z,96198.22
2018-12-18T20:19:21.039Z,96200.30
2018-12-18T20:21:49.569Z,96209.66
2018-12-18T20:24:18.154Z,96211.55
2018-12-18T20:26:46.703Z,96206.95
2018-12-18T20:29:15.284Z,96204.95
2018-12-18T20:31:43.873Z,96203.95
2018-12-18T20:34:12.414Z,96205.76
2018-12-18T20:36:40.930Z,96210.92
2018-12-18T20:39:10.585Z,96211.43
2018-12-18T20:41:39.337Z,96202.25
2018-12-18T20:44:07.931Z,96210.53
2018-12-18T20:46:36.521Z,96205.25
2018-12-18T20:49:05.109Z,96203.51
2018-12-18T20:51:33.684Z,96203.30
2018-12-18T20:54:02.297Z,96203.30
2018-12-18T20:56:30.861Z,96201.98
2018-12-18T20:58:59.455Z,96203.06
2018-12-18T21:01:28.618Z,96203.51
2018-12-18T21:03:57.417Z,96203.81
2018-12-18T21:06:26.833Z,96205.34
2018-12-18T21:08:55.408Z,96209.91
2018-12-18T21:11:23.976Z,96208.34
2018-12-18T21:13:52.501Z,96208.34
2018-12-18T21:16:21.064Z,96204.56
2018-12-18T21:18:49.579Z,96204.02
2018-12-18T21:21:18.139Z,96168.97
2018-12-18T21:23:46.637Z,96208.73
2018-12-18T21:26:15.170Z,96205.64
2018-12-18T21:28:43.846Z,96201.88
2018-12-18T21:31:12.570Z,96203.95
2018-12-18T21:33:41.062Z,96195.27
2018-12-18T21:36:09.822Z,96190.59
2018-12-18T21:38:38.412Z,96201.16
2018-12-18T21:41:06.979Z,96187.66
2018-12-18T21:43:35.536Z,96188.41
2018-12-18T21:46:04.110Z,96182.49
2018-12-18T21:48:32.652Z,96184.45
2018-12-18T21:51:01.473Z,96183.99
2018-12-18T21:53:30.069Z,96177.66
2018-12-18T21:55:58.627Z,96177.27
2018-12-18T21:58:27.199Z,96180.23
2018-12-18T22:00:55.787Z,96184.50
2018-12-18T22:03:24.489Z,96178.35
2018-12-18T22:05:53.219Z,96177.91
2018-12-18T22:08:21.753Z,96176.40
2018-12-18T22:10:50.317Z,96180.03
2018-12-18T22:13:18.865Z,96176.07
2018-12-18T22:15:47.385Z,96187.70
2018-12-18T22:18:15.942Z,96190.41
2018-12-18T22:20:44.608Z,96233.80
2018-12-18T22:23:13.156Z,96192.42
2018-12-18T22:25:41.680Z,96181.11
2018-12-18T22:28:10.317Z,96188.22
2018-12-18T22:30:38.909Z,96190.55
2018-12-18T22:33:07.394Z,96184.02
2018-12-18T22:35:35.940Z,96176.09
2018-12-18T22:38:04.499Z,96183.17
2018-12-18T22:40:33.097Z,96173.94
2018-12-18T22:43:01.636Z,96181.86
2018-12-18T22:45:30.257Z,96179.53
2018-12-18T22:47:58.808Z,96173.30
2018-12-18T22:50:27.328Z,96176.33
2018-12-18T22:52:55.888Z,96171.50
2018-12-18T22:55:24.455Z,96167.91
2018-12-18T22:57:53.027Z,96163.31
2018-12-18T23:00:26.688Z,96163.58
2018-12-18T23:02:55.335Z,96156.98
2018-12-18T23:05:23.947Z,96156.08
2018-12-18T23:07:52.506Z,96151.00
2018-12-18T23:10:21.022Z,96153.77
2018-12-18T23:12:49.592Z,96155.20
2018-12-18T23:15:18.218Z,96150.89
2018-12-18T23:17:46.771Z,96150.44
2018-12-18T23:20:15.320Z,96144.64
2018-12-18T23:22:43.876Z,96149.05
2018-12-18T23:25:12.416Z,96144.47
2018-12-18T23:27:40.989Z,96148.79
2018-12-18T23:30:10.051Z,96148.55
2018-12-18T23:32:38.590Z,96144.20
2018-12-18T23:35:07.304Z,96146.89
2018-12-18T23:37:35.836Z,96142.06
2018-12-18T23:40:04.457Z,96143.02
2018-12-18T23:42:33.045Z,96144.34
2018-12-18T23:45:01.575Z,96148.09
2018-12-18T23:47:30.116Z,96146.53
2018-12-18T23:49:58.610Z,96146.98
2018-12-18T23:52:27.192Z,96143.59
2018-12-18T23:54:55.717Z,96142.64
2018-12-18T23:57:24.452Z,96140.81
2018-12-18T23:59:52.957Z,96141.95
